sensor_id;sensor_type;location;lat;lon;timestamp;temperature;humidity
64468;DHT22;50853;46.836;16.820;2022-11-18T04:38:48;22.50;55.00
64468;DHT22;50853;46.836;16.820;2022-11-18T04:41:14;22.50;56.60
64468;DHT22;50853;46.836;16.820;2022-11-18T04:43:40;22.50;55.00
64468;DHT22;50853;46.836;16.820;2022-11-18T04:46:07;22.50;53.70
64468;DHT22;50853;46.836;16.820;2022-11-18T04:48:33;22.50;53.70
64468;DHT22;50853;46.836;16.820;2022-11-18T04:51:03;22.40;53.20
64468;DHT22;50853;46.836;16.820;2022-11-18T04:53:29;22.70;56.30
64468;DHT22;50853;46.836;16.820;2022-11-18T04:55:55;22.90;56.20
64468;DHT22;50853;46.836;16.820;2022-11-18T04:58:21;23.20;55.70
64468;DHT22;50853;46.836;16.820;2022-11-18T05:00:49;23.30;55.80
64468;DHT22;50853;46.836;16.820;2022-11-18T05:03:15;23.50;56.10
64468;DHT22;50853;46.836;16.820;2022-11-18T05:05:41;23.50;56.30
64468;DHT22;50853;46.836;16.820;2022-11-18T05:08:07;23.60;56.50
64468;DHT22;50853;46.836;16.820;2022-11-18T05:10:32;23.60;56.60
64468;DHT22;50853;46.836;16.820;2022-11-18T05:12:58;23.70;57.00
64468;DHT22;50853;46.836;16.820;2022-11-18T05:15:24;23.80;57.60
64468;DHT22;50853;46.836;16.820;2022-11-18T05:17:50;23.80;57.50
64468;DHT22;50853;46.836;16.820;2022-11-18T05:20:16;23.80;58.20
64468;DHT22;50853;46.836;16.820;2022-11-18T05:22:42;23.90;58.30
64468;DHT22;50853;46.836;16.820;2022-11-18T05:25:08;23.90;58.80
64468;DHT22;50853;46.836;16.820;2022-11-18T05:27:34;23.90;58.70
64468;DHT22;50853;46.836;16.820;2022-11-18T05:30:00;23.90;58.80
64468;DHT22;50853;46.836;16.820;2022-11-18T05:32:25;24.00;59.10
64468;DHT22;50853;46.836;16.820;2022-11-18T05:34:51;24.00;59.30
64468;DHT22;50853;46.836;16.820;2022-11-18T05:37:17;24.00;59.50
64468;DHT22;50853;46.836;16.820;2022-11-18T05:39:42;24.00;59.50
64468;DHT22;50853;46.836;16.820;2022-11-18T05:42:09;24.10;59.90
64468;DHT22;50853;46.836;16.820;2022-11-18T05:44:53;24.10;60.10
64468;DHT22;50853;46.836;16.820;2022-11-18T05:47:19;24.10;60.10
64468;DHT22;50853;46.836;16.820;2022-11-18T05:49:45;24.10;60.20
64468;DHT22;50853;46.836;16.820;2022-11-18T05:52:11;24.20;60.20
64468;DHT22;50853;46.836;16.820;2022-11-18T05:54:47;24.20;60.50
64468;DHT22;50853;46.836;16.820;2022-11-18T05:57:14;24.20;60.60
64468;DHT22;50853;46.836;16.820;2022-11-18T05:59:40;24.30;60.70
64468;DHT22;50853;46.836;16.820;2022-11-18T06:07:09;24.40;61.50
64468;DHT22;50853;46.836;16.820;2022-11-18T14:57:16;24.40;63.80
64468;DHT22;50853;46.836;16.820;2022-11-18T14:59:43;24.40;64.70
64468;DHT22;50853;46.836;16.820;2022-11-18T15:02:16;24.40;64.20
64468;DHT22;50853;46.836;16.820;2022-11-18T15:04:42;24.40;64.20
64468;DHT22;50853;46.836;16.820;2022-11-18T15:07:11;24.40;64.00
64468;DHT22;50853;46.836;16.820;2022-11-18T15:09:39;24.40;64.10
64468;DHT22;50853;46.836;16.820;2022-11-18T15:12:05;24.50;63.90
64468;DHT22;50853;46.836;16.820;2022-11-18T15:14:30;24.50;64.00
64468;DHT22;50853;46.836;16.820;2022-11-18T15:16:56;24.50;63.80
64468;DHT22;50853;46.836;16.820;2022-11-18T15:19:22;24.50;63.70
64468;DHT22;50853;46.836;16.820;2022-11-18T15:21:48;24.50;63.90
64468;DHT22;50853;46.836;16.820;2022-11-18T15:24:13;24.50;63.60
64468;DHT22;50853;46.836;16.820;2022-11-18T15:26:42;24.60;63.50
64468;DHT22;50853;46.836;16.820;2022-11-18T15:29:29;24.60;63.50
64468;DHT22;50853;46.836;16.820;2022-11-18T15:31:54;24.60;63.30
64468;DHT22;50853;46.836;16.820;2022-11-18T15:34:20;24.60;63.20
64468;DHT22;50853;46.836;16.820;2022-11-18T15:36:46;24.70;63.20
64468;DHT22;50853;46.836;16.820;2022-11-18T15:39:12;24.70;62.80
64468;DHT22;50853;46.836;16.820;2022-11-18T15:41:39;24.70;62.80
64468;DHT22;50853;46.836;16.820;2022-11-18T15:44:06;24.70;62.80
64468;DHT22;50853;46.836;16.820;2022-11-18T15:46:31;24.80;62.80
64468;DHT22;50853;46.836;16.820;2022-11-18T15:48:58;24.80;62.80
64468;DHT22;50853;46.836;16.820;2022-11-18T15:51:25;24.80;62.70
64468;DHT22;50853;46.836;16.820;2022-11-18T15:53:51;24.80;62.70
64468;DHT22;50853;46.836;16.820;2022-11-18T15:58:44;24.80;62.70
64468;DHT22;50853;46.836;16.820;2022-11-18T16:01:10;24.80;62.70
64468;DHT22;50853;46.836;16.820;2022-11-18T16:03:36;24.80;62.80
64468;DHT22;50853;46.836;16.820;2022-11-18T16:06:02;24.80;62.80
64468;DHT22;50853;46.836;16.820;2022-11-18T16:08:29;24.80;62.70
64468;DHT22;50853;46.836;16.820;2022-11-18T16:10:55;24.90;62.70
64468;DHT22;50853;46.836;16.820;2022-11-18T16:13:40;24.90;62.50
64468;DHT22;50853;46.836;16.820;2022-11-18T16:16:06;24.90;62.40
64468;DHT22;50853;46.836;16.820;2022-11-18T16:18:32;24.90;62.40
64468;DHT22;50853;46.836;16.820;2022-11-18T16:20:58;24.90;62.50
64468;DHT22;50853;46.836;16.820;2022-11-18T16:23:25;24.90;62.50
64468;DHT22;50853;46.836;16.820;2022-11-18T16:25:52;24.90;62.50
64468;DHT22;50853;46.836;16.820;2022-11-18T16:28:19;24.90;62.50
64468;DHT22;50853;46.836;16.820;2022-11-18T16:30:48;24.90;62.50
64468;DHT22;50853;46.836;16.820;2022-11-18T16:33:32;24.90;62.40
64468;DHT22;50853;46.836;16.820;2022-11-18T16:35:58;24.90;62.40
64468;DHT22;50853;46.836;16.820;2022-11-18T16:38:24;24.90;62.30
64468;DHT22;50853;46.836;16.820;2022-11-18T16:40:57;24.90;62.40
64468;DHT22;50853;46.836;16.820;2022-11-18T16:43:23;25.00;62.40
64468;DHT22;50853;46.836;16.820;2022-11-18T16:45:50;24.90;62.30
64468;DHT22;50853;46.836;16.820;2022-11-18T16:48:17;25.00;62.30
64468;DHT22;50853;46.836;16.820;2022-11-18T16:50:43;25.00;62.20
64468;DHT22;50853;46.836;16.820;2022-11-18T16:53:09;25.00;62.20
64468;DHT22;50853;46.836;16.820;2022-11-18T16:55:35;25.00;61.90
64468;DHT22;50853;46.836;16.820;2022-11-18T16:58:00;24.90;62.00
64468;DHT22;50853;46.836;16.820;2022-11-18T17:00:26;25.00;62.50
64468;DHT22;50853;46.836;16.820;2022-11-18T17:02:52;25.00;61.80
64468;DHT22;50853;46.836;16.820;2022-11-18T17:05:18;25.00;61.90
64468;DHT22;50853;46.836;16.820;2022-11-18T17:07:43;25.00;62.00
64468;DHT22;50853;46.836;16.820;2022-11-18T17:10:09;25.10;62.40
64468;DHT22;50853;46.836;16.820;2022-11-18T17:12:47;25.10;62.80
64468;DHT22;50853;46.836;16.820;2022-11-18T17:15:13;25.10;63.10
64468;DHT22;50853;46.836;16.820;2022-11-18T17:17:39;25.10;64.00
64468;DHT22;50853;46.836;16.820;2022-11-18T17:20:05;25.10;64.20
64468;DHT22;50853;46.836;16.820;2022-11-18T17:22:31;25.10;64.40
64468;DHT22;50853;46.836;16.820;2022-11-18T17:24:57;25.20;64.70
64468;DHT22;50853;46.836;16.820;2022-11-18T17:27:23;25.10;64.50
64468;DHT22;50853;46.836;16.820;2022-11-18T17:29:49;25.10;64.70
64468;DHT22;50853;46.836;16.820;2022-11-18T17:32:16;25.10;64.50
64468;DHT22;50853;46.836;16.820;2022-11-18T17:34:42;25.10;64.50
64468;DHT22;50853;46.836;16.820;2022-11-18T17:37:08;25.10;64.50
64468;DHT22;50853;46.836;16.820;2022-11-18T17:39:34;25.20;64.50
64468;DHT22;50853;46.836;16.820;2022-11-18T17:42:00;25.20;64.20
64468;DHT22;50853;46.836;16.820;2022-11-18T17:44:38;25.20;64.10
64468;DHT22;50853;46.836;16.820;2022-11-18T17:47:04;25.20;64.20
64468;DHT22;50853;46.836;16.820;2022-11-18T17:49:29;25.20;64.10
64468;DHT22;50853;46.836;16.820;2022-11-18T17:51:55;25.20;63.50
64468;DHT22;50853;46.836;16.820;2022-11-18T17:54:21;24.90;60.10
64468;DHT22;50853;46.836;16.820;2022-11-18T17:56:47;24.60;55.80
64468;DHT22;50853;46.836;16.820;2022-11-18T17:59:14;24.00;55.40
64468;DHT22;50853;46.836;16.820;2022-11-18T18:01:42;23.70;52.10
64468;DHT22;50853;46.836;16.820;2022-11-18T18:04:09;23.30;53.60
64468;DHT22;50853;46.836;16.820;2022-11-18T18:06:35;23.30;53.10
64468;DHT22;50853;46.836;16.820;2022-11-18T18:09:01;23.30;51.90
64468;DHT22;50853;46.836;16.820;2022-11-18T18:11:27;23.20;51.10
64468;DHT22;50853;46.836;16.820;2022-11-18T18:13:53;23.00;50.70
64468;DHT22;50853;46.836;16.820;2022-11-18T18:16:44;22.80;50.20
64468;DHT22;50853;46.836;16.820;2022-11-18T18:19:15;22.80;50.00
64468;DHT22;50853;46.836;16.820;2022-11-18T18:21:42;22.90;50.10
64468;DHT22;50853;46.836;16.820;2022-11-18T18:24:08;22.80;49.10
64468;DHT22;50853;46.836;16.820;2022-11-18T18:26:35;22.80;49.50
64468;DHT22;50853;46.836;16.820;2022-11-18T18:29:02;22.80;49.10
64468;DHT22;50853;46.836;16.820;2022-11-18T18:31:28;22.70;48.80
64468;DHT22;50853;46.836;16.820;2022-11-18T18:33:56;22.70;48.80
64468;DHT22;50853;46.836;16.820;2022-11-18T18:36:23;22.70;49.10
64468;DHT22;50853;46.836;16.820;2022-11-18T18:38:50;22.70;48.40
64468;DHT22;50853;46.836;16.820;2022-11-18T18:41:17;22.70;48.30
64468;DHT22;50853;46.836;16.820;2022-11-18T18:43:44;22.60;48.40
64468;DHT22;50853;46.836;16.820;2022-11-18T18:46:15;22.60;48.20
64468;DHT22;50853;46.836;16.820;2022-11-18T18:49:01;22.50;48.00
64468;DHT22;50853;46.836;16.820;2022-11-18T18:51:50;22.50;48.30
64468;DHT22;50853;46.836;16.820;2022-11-18T18:54:16;22.50;47.90
64468;DHT22;50853;46.836;16.820;2022-11-18T18:56:43;22.50;47.70
64468;DHT22;50853;46.836;16.820;2022-11-18T18:59:09;22.50;47.80
64468;DHT22;50853;46.836;16.820;2022-11-18T19:01:35;22.40;47.70
64468;DHT22;50853;46.836;16.820;2022-11-18T19:04:03;22.40;48.10
64468;DHT22;50853;46.836;16.820;2022-11-18T19:06:33;22.70;49.50
64468;DHT22;50853;46.836;16.820;2022-11-18T19:09:01;22.80;50.70
64468;DHT22;50853;46.836;16.820;2022-11-18T19:11:27;22.60;50.00
64468;DHT22;50853;46.836;16.820;2022-11-18T19:14:14;22.50;50.60
64468;DHT22;50853;46.836;16.820;2022-11-18T19:16:40;22.30;50.40
64468;DHT22;50853;46.836;16.820;2022-11-18T19:19:07;22.20;49.70
64468;DHT22;50853;46.836;16.820;2022-11-18T19:21:34;22.20;49.50
64468;DHT22;50853;46.836;16.820;2022-11-18T19:24:01;22.10;49.20
64468;DHT22;50853;46.836;16.820;2022-11-18T19:26:27;22.10;49.00
64468;DHT22;50853;46.836;16.820;2022-11-18T19:28:53;22.10;48.70
64468;DHT22;50853;46.836;16.820;2022-11-18T19:31:18;22.10;48.50
64468;DHT22;50853;46.836;16.820;2022-11-18T19:33:46;22.00;48.30
64468;DHT22;50853;46.836;16.820;2022-11-18T19:36:12;22.00;48.10
64468;DHT22;50853;46.836;16.820;2022-11-18T19:38:38;21.90;48.20
64468;DHT22;50853;46.836;16.820;2022-11-18T19:41:06;21.90;48.10
64468;DHT22;50853;46.836;16.820;2022-11-18T19:43:32;21.90;48.10
64468;DHT22;50853;46.836;16.820;2022-11-18T19:45:57;22.00;48.10
64468;DHT22;50853;46.836;16.820;2022-11-18T19:48:24;21.90;48.20
64468;DHT22;50853;46.836;16.820;2022-11-18T19:50:50;21.80;48.20
64468;DHT22;50853;46.836;16.820;2022-11-18T19:53:16;21.70;48.10
64468;DHT22;50853;46.836;16.820;2022-11-18T19:55:58;21.70;48.00
64468;DHT22;50853;46.836;16.820;2022-11-18T19:58:25;21.70;47.90
64468;DHT22;50853;46.836;16.820;2022-11-18T20:00:51;21.70;47.70
64468;DHT22;50853;46.836;16.820;2022-11-18T20:03:17;21.70;48.00
64468;DHT22;50853;46.836;16.820;2022-11-18T20:05:43;21.90;49.50
64468;DHT22;50853;46.836;16.820;2022-11-18T20:08:23;21.90;49.50
64468;DHT22;50853;46.836;16.820;2022-11-18T20:10:50;21.60;49.50
64468;DHT22;50853;46.836;16.820;2022-11-18T20:13:17;21.60;50.00
64468;DHT22;50853;46.836;16.820;2022-11-18T20:15:43;21.70;50.20
64468;DHT22;50853;46.836;16.820;2022-11-18T20:18:09;21.90;54.00
64468;DHT22;50853;46.836;16.820;2022-11-18T20:20:36;22.30;55.80
